Terminal Aerodrome Forecast
Issued by NWS

Home | Current Version | Previous Version | Text Only | Print | Product List | Glossary On
Versions: 1 2 3 4 5 6 7 8 9 10 11 12 13
000
FTUS45 KPSR 302336
TAFIWA
TAF
KIWA 302336Z 3100/3124 22014G24KT P6SM SCT250
     FM310500 26018KT P6SM SCT100
      TEMPO 3105/3108 27020G30KT 6SM BLDU
     FM311100 25010KT P6SM FEW070
     FM312000 26015G25KT P6SM FEW250
      AMD LTD TO CLD VIS AND WIND 3103/3113=

USA.gov is the U.S. government's official web portal to all federal, state and local government web resources and services.